BEL8QB EBBR-EDDF
Flight info
| Callsign | BEL8QB |
|---|---|
| Flight time | 0h 37m |
| Altitude | 23000 |
| Route | SPI T180 NIVNU T847 IMCOM IMCOM1A |
| Aircraft | A319/M-DE3FGIJ1LORVWY/H |
Departure
| Time | 2026-04-16 06:47 |
|---|---|
| Airport | Brussels Airport (EBBR) |
Arrival
| Time | 2026-04-16 07:24 |
|---|---|
| Airport | Frankfurt Main Airport (EDDF) |
| Time | Latitude | Longitude | Altitude | Speed | Heading |
|---|---|---|---|---|---|
| 2026-04-16 06:18 | 50.90275 | 4.48150 | 118 ft | 0 kts | 155° |
| 2026-04-16 06:39 | 50.90291 | 4.48138 | 117 ft | 4 kts | 151° |
| 2026-04-16 06:39 | 50.90311 | 4.48114 | 116 ft | 4 kts | 121° |
| 2026-04-16 06:39 | 50.90315 | 4.48088 | 117 ft | 0 kts | 65° |
| 2026-04-16 06:43 | 50.90321 | 4.48107 | 117 ft | 5 kts | 64° |
| 2026-04-16 06:43 | 50.90351 | 4.48174 | 119 ft | 10 kts | 44° |
| 2026-04-16 06:43 | 50.90412 | 4.48271 | 120 ft | 15 kts | 65° |
| 2026-04-16 06:43 | 50.90465 | 4.48451 | 119 ft | 20 kts | 65° |
| 2026-04-16 06:44 | 50.90524 | 4.48655 | 120 ft | 21 kts | 65° |
| 2026-04-16 06:44 | 50.90585 | 4.48866 | 118 ft | 21 kts | 65° |
| 2026-04-16 06:44 | 50.90648 | 4.49086 | 120 ft | 22 kts | 65° |
| 2026-04-16 06:44 | 50.90711 | 4.49306 | 122 ft | 22 kts | 65° |
| 2026-04-16 06:45 | 50.90775 | 4.49527 | 120 ft | 22 kts | 65° |
| 2026-04-16 06:45 | 50.90839 | 4.49735 | 123 ft | 18 kts | 49° |
| 2026-04-16 06:45 | 50.90953 | 4.49825 | 121 ft | 19 kts | 39° |
| 2026-04-16 06:45 | 50.91051 | 4.49919 | 118 ft | 18 kts | 22° |
| 2026-04-16 06:46 | 50.91133 | 4.49869 | 118 ft | 10 kts | 263° |
| 2026-04-16 06:46 | 50.91110 | 4.49784 | 116 ft | 7 kts | 245° |
| 2026-04-16 06:46 | 50.91055 | 4.49593 | 117 ft | 52 kts | 245° |
| 2026-04-16 06:46 | 50.90787 | 4.48666 | 119 ft | 129 kts | 245° |
| 2026-04-16 06:47 | 50.90343 | 4.47123 | 383 ft | 163 kts | 246° |
| 2026-04-16 06:47 | 50.89882 | 4.45487 | 1214 ft | 162 kts | 246° |
| 2026-04-16 06:47 | 50.89416 | 4.43887 | 2096 ft | 160 kts | 244° |
| 2026-04-16 06:47 | 50.88790 | 4.42438 | 2939 ft | 159 kts | 231° |
| 2026-04-16 06:48 | 50.87983 | 4.41229 | 3674 ft | 165 kts | 219° |
| 2026-04-16 06:48 | 50.86927 | 4.40231 | 4083 ft | 191 kts | 206° |
| 2026-04-16 06:48 | 50.85579 | 4.39595 | 4535 ft | 219 kts | 192° |
| 2026-04-16 06:48 | 50.83960 | 4.39566 | 5091 ft | 248 kts | 175° |
| 2026-04-16 06:49 | 50.82270 | 4.40445 | 5950 ft | 264 kts | 156° |
| 2026-04-16 06:49 | 50.80792 | 4.42252 | 6927 ft | 277 kts | 136° |
| 2026-04-16 06:49 | 50.79780 | 4.44913 | 7847 ft | 290 kts | 114° |
| 2026-04-16 06:49 | 50.79058 | 4.47913 | 8795 ft | 295 kts | 112° |
| 2026-04-16 06:50 | 50.78339 | 4.50964 | 9754 ft | 300 kts | 112° |
| 2026-04-16 06:50 | 50.77606 | 4.54092 | 10552 ft | 310 kts | 112° |
| 2026-04-16 06:50 | 50.76825 | 4.57418 | 10909 ft | 335 kts | 112° |
| 2026-04-16 06:50 | 50.75996 | 4.60949 | 11502 ft | 349 kts | 112° |
| 2026-04-16 06:51 | 50.75143 | 4.64573 | 12292 ft | 355 kts | 112° |
| 2026-04-16 06:51 | 50.74272 | 4.68254 | 13100 ft | 361 kts | 112° |
| 2026-04-16 06:51 | 50.73382 | 4.71996 | 13895 ft | 367 kts | 112° |
| 2026-04-16 06:51 | 50.72478 | 4.75783 | 14602 ft | 372 kts | 112° |
| 2026-04-16 06:52 | 50.71559 | 4.79636 | 15300 ft | 378 kts | 112° |
| 2026-04-16 06:52 | 50.70628 | 4.83537 | 15984 ft | 383 kts | 112° |
| 2026-04-16 06:52 | 50.69683 | 4.87501 | 16679 ft | 388 kts | 112° |
| 2026-04-16 06:52 | 50.68729 | 4.91507 | 17369 ft | 393 kts | 112° |
| 2026-04-16 06:53 | 50.67759 | 4.95567 | 18047 ft | 398 kts | 112° |
| 2026-04-16 06:53 | 50.66773 | 4.99682 | 18690 ft | 403 kts | 112° |
| 2026-04-16 06:53 | 50.65774 | 5.03837 | 19279 ft | 408 kts | 112° |
| 2026-04-16 06:53 | 50.64759 | 5.08041 | 19882 ft | 413 kts | 112° |
| 2026-04-16 06:54 | 50.63730 | 5.12287 | 20486 ft | 417 kts | 113° |
| 2026-04-16 06:54 | 50.62692 | 5.16571 | 21119 ft | 420 kts | 113° |
| 2026-04-16 06:54 | 50.61647 | 5.20884 | 21734 ft | 424 kts | 113° |
| 2026-04-16 06:54 | 50.60588 | 5.25234 | 22330 ft | 428 kts | 113° |
| 2026-04-16 06:55 | 50.59514 | 5.29628 | 22917 ft | 432 kts | 113° |
| 2026-04-16 06:55 | 50.58427 | 5.34064 | 23173 ft | 435 kts | 113° |
| 2026-04-16 06:55 | 50.57345 | 5.38481 | 23224 ft | 429 kts | 113° |
| 2026-04-16 06:55 | 50.56275 | 5.42845 | 23218 ft | 427 kts | 113° |
| 2026-04-16 06:56 | 50.55209 | 5.47193 | 23218 ft | 426 kts | 113° |
| 2026-04-16 06:56 | 50.54143 | 5.51540 | 23220 ft | 426 kts | 113° |
| 2026-04-16 06:56 | 50.53076 | 5.55879 | 23220 ft | 426 kts | 113° |
| 2026-04-16 06:56 | 50.52006 | 5.60219 | 23216 ft | 425 kts | 113° |
| 2026-04-16 06:57 | 50.51155 | 5.64663 | 23207 ft | 426 kts | 104° |
| 2026-04-16 06:57 | 50.50531 | 5.69216 | 23218 ft | 426 kts | 103° |
| 2026-04-16 06:57 | 50.49900 | 5.73767 | 23218 ft | 426 kts | 103° |
| 2026-04-16 06:57 | 50.49261 | 5.78316 | 23209 ft | 426 kts | 104° |
| 2026-04-16 06:58 | 50.48620 | 5.82860 | 23205 ft | 426 kts | 103° |
| 2026-04-16 06:58 | 50.47981 | 5.87406 | 23205 ft | 426 kts | 104° |
| 2026-04-16 06:58 | 50.47349 | 5.91898 | 23205 ft | 426 kts | 104° |
| 2026-04-16 06:58 | 50.46700 | 5.96491 | 23195 ft | 426 kts | 104° |
| 2026-04-16 06:59 | 50.46056 | 6.01022 | 23194 ft | 426 kts | 104° |
| 2026-04-16 06:59 | 50.45411 | 6.05561 | 23185 ft | 426 kts | 104° |
| 2026-04-16 06:59 | 50.44764 | 6.10087 | 23191 ft | 426 kts | 104° |
| 2026-04-16 06:59 | 50.44115 | 6.14619 | 23190 ft | 426 kts | 104° |
| 2026-04-16 07:00 | 50.43465 | 6.19147 | 23192 ft | 426 kts | 104° |
| 2026-04-16 07:00 | 50.42811 | 6.23672 | 23193 ft | 426 kts | 104° |
| 2026-04-16 07:00 | 50.42155 | 6.28203 | 23195 ft | 426 kts | 104° |
| 2026-04-16 07:01 | 50.40844 | 6.37249 | 23196 ft | 426 kts | 104° |
| 2026-04-16 07:01 | 50.40187 | 6.41774 | 23195 ft | 426 kts | 104° |
| 2026-04-16 07:01 | 50.39529 | 6.46294 | 23197 ft | 426 kts | 104° |
| 2026-04-16 07:01 | 50.38866 | 6.50817 | 23206 ft | 425 kts | 104° |
| 2026-04-16 07:02 | 50.38202 | 6.55328 | 23204 ft | 425 kts | 104° |
| 2026-04-16 07:02 | 50.37536 | 6.59835 | 23207 ft | 425 kts | 104° |
| 2026-04-16 07:02 | 50.36867 | 6.64349 | 23209 ft | 425 kts | 104° |
| 2026-04-16 07:02 | 50.36197 | 6.68856 | 23215 ft | 425 kts | 104° |
| 2026-04-16 07:03 | 50.35526 | 6.73366 | 23215 ft | 425 kts | 104° |
| 2026-04-16 07:03 | 50.34853 | 6.77871 | 23217 ft | 425 kts | 104° |
| 2026-04-16 07:03 | 50.34188 | 6.82313 | 23218 ft | 425 kts | 104° |
| 2026-04-16 07:03 | 50.33594 | 6.86843 | 23219 ft | 426 kts | 98° |
| 2026-04-16 07:04 | 50.33328 | 6.91458 | 23221 ft | 426 kts | 95° |
| 2026-04-16 07:04 | 50.33093 | 6.96077 | 23223 ft | 426 kts | 95° |
| 2026-04-16 07:04 | 50.32857 | 7.00689 | 23226 ft | 425 kts | 95° |
| 2026-04-16 07:04 | 50.32620 | 7.05303 | 23228 ft | 425 kts | 95° |
| 2026-04-16 07:05 | 50.32382 | 7.09883 | 23228 ft | 425 kts | 95° |
| 2026-04-16 07:05 | 50.32139 | 7.14497 | 23231 ft | 425 kts | 95° |
| 2026-04-16 07:05 | 50.31893 | 7.19103 | 23233 ft | 425 kts | 95° |
| 2026-04-16 07:05 | 50.31644 | 7.23710 | 23231 ft | 425 kts | 95° |
| 2026-04-16 07:06 | 50.31391 | 7.28315 | 23229 ft | 425 kts | 95° |
| 2026-04-16 07:06 | 50.31149 | 7.32709 | 23228 ft | 424 kts | 95° |
| 2026-04-16 07:06 | 50.30886 | 7.37475 | 23228 ft | 424 kts | 95° |
| 2026-04-16 07:06 | 50.30629 | 7.42073 | 23225 ft | 424 kts | 95° |
| 2026-04-16 07:07 | 50.30370 | 7.46665 | 23230 ft | 424 kts | 95° |
| 2026-04-16 07:07 | 50.30110 | 7.51258 | 23232 ft | 427 kts | 95° |
| 2026-04-16 07:07 | 50.29845 | 7.55920 | 23225 ft | 431 kts | 95° |
| 2026-04-16 07:07 | 50.29578 | 7.60597 | 23228 ft | 432 kts | 95° |
| 2026-04-16 07:08 | 50.29309 | 7.65287 | 23228 ft | 433 kts | 95° |
| 2026-04-16 07:08 | 50.29040 | 7.69972 | 23214 ft | 433 kts | 95° |
| 2026-04-16 07:08 | 50.28768 | 7.74653 | 22602 ft | 433 kts | 95° |
| 2026-04-16 07:08 | 50.28491 | 7.79335 | 22037 ft | 431 kts | 95° |
| 2026-04-16 07:09 | 50.28211 | 7.83979 | 21563 ft | 427 kts | 95° |
| 2026-04-16 07:09 | 50.27932 | 7.88572 | 21099 ft | 423 kts | 95° |
| 2026-04-16 07:09 | 50.27656 | 7.93128 | 20632 ft | 419 kts | 95° |
| 2026-04-16 07:09 | 50.27384 | 7.97641 | 20165 ft | 414 kts | 95° |
| 2026-04-16 07:10 | 50.27114 | 8.02089 | 19421 ft | 408 kts | 95° |
| 2026-04-16 07:10 | 50.26846 | 8.06469 | 18652 ft | 403 kts | 95° |
| 2026-04-16 07:10 | 50.26580 | 8.10793 | 17817 ft | 397 kts | 95° |
| 2026-04-16 07:10 | 50.26327 | 8.14880 | 17018 ft | 391 kts | 95° |
| 2026-04-16 07:11 | 50.26067 | 8.19076 | 16218 ft | 385 kts | 95° |
| 2026-04-16 07:11 | 50.25808 | 8.23206 | 15438 ft | 380 kts | 95° |
| 2026-04-16 07:11 | 50.25548 | 8.27290 | 14675 ft | 374 kts | 95° |
| 2026-04-16 07:11 | 50.25290 | 8.31303 | 13904 ft | 369 kts | 96° |
| 2026-04-16 07:12 | 50.25033 | 8.35267 | 13072 ft | 364 kts | 96° |
| 2026-04-16 07:12 | 50.24781 | 8.39165 | 12263 ft | 358 kts | 95° |
| 2026-04-16 07:12 | 50.24536 | 8.42992 | 11641 ft | 348 kts | 95° |
| 2026-04-16 07:12 | 50.24299 | 8.46673 | 11216 ft | 334 kts | 95° |
| 2026-04-16 07:13 | 50.24069 | 8.50220 | 10761 ft | 322 kts | 95° |
| 2026-04-16 07:13 | 50.23844 | 8.53638 | 10331 ft | 311 kts | 95° |
| 2026-04-16 07:13 | 50.23626 | 8.56941 | 9862 ft | 302 kts | 95° |
| 2026-04-16 07:13 | 50.23414 | 8.60151 | 9183 ft | 300 kts | 95° |
| 2026-04-16 07:14 | 50.23202 | 8.63366 | 8581 ft | 296 kts | 95° |
| 2026-04-16 07:14 | 50.22989 | 8.66598 | 7965 ft | 293 kts | 95° |
| 2026-04-16 07:14 | 50.22778 | 8.69777 | 7191 ft | 296 kts | 95° |
| 2026-04-16 07:14 | 50.22571 | 8.72883 | 6797 ft | 284 kts | 96° |
| 2026-04-16 07:15 | 50.22371 | 8.75840 | 6641 ft | 264 kts | 96° |
| 2026-04-16 07:15 | 50.22183 | 8.78582 | 6520 ft | 244 kts | 96° |
| 2026-04-16 07:15 | 50.22009 | 8.81120 | 6427 ft | 228 kts | 96° |
| 2026-04-16 07:15 | 50.21844 | 8.83530 | 6316 ft | 219 kts | 96° |
| 2026-04-16 07:16 | 50.21686 | 8.85850 | 6219 ft | 211 kts | 96° |
| 2026-04-16 07:16 | 50.21532 | 8.88103 | 6127 ft | 208 kts | 95° |
| 2026-04-16 07:16 | 50.21257 | 8.90300 | 5912 ft | 206 kts | 118° |
| 2026-04-16 07:16 | 50.20294 | 8.91870 | 5724 ft | 201 kts | 155° |
| 2026-04-16 07:17 | 50.18957 | 8.92400 | 5558 ft | 199 kts | 173° |
| 2026-04-16 07:17 | 50.17592 | 8.92755 | 5362 ft | 198 kts | 172° |
| 2026-04-16 07:17 | 50.16232 | 8.93098 | 5174 ft | 197 kts | 177° |
| 2026-04-16 07:17 | 50.14908 | 8.92761 | 4927 ft | 193 kts | 201° |
| 2026-04-16 07:18 | 50.13654 | 8.92032 | 4687 ft | 192 kts | 206° |
| 2026-04-16 07:18 | 50.12564 | 8.90877 | 4437 ft | 189 kts | 222° |
| 2026-04-16 07:18 | 50.11573 | 8.89529 | 4217 ft | 189 kts | 227° |
| 2026-04-16 07:18 | 50.10903 | 8.87823 | 4046 ft | 184 kts | 252° |
| 2026-04-16 07:19 | 50.10464 | 8.85941 | 3975 ft | 186 kts | 251° |
| 2026-04-16 07:19 | 50.10017 | 8.84052 | 3788 ft | 186 kts | 251° |
| 2026-04-16 07:19 | 50.09574 | 8.82171 | 3555 ft | 185 kts | 251° |
| 2026-04-16 07:19 | 50.09129 | 8.80285 | 3316 ft | 187 kts | 251° |
| 2026-04-16 07:20 | 50.08681 | 8.78386 | 3096 ft | 185 kts | 251° |
| 2026-04-16 07:20 | 50.08237 | 8.76503 | 2813 ft | 184 kts | 251° |
| 2026-04-16 07:20 | 50.07806 | 8.74682 | 2555 ft | 174 kts | 251° |
| 2026-04-16 07:20 | 50.07408 | 8.73002 | 2357 ft | 155 kts | 251° |
| 2026-04-16 07:21 | 50.07059 | 8.71533 | 2142 ft | 135 kts | 251° |
| 2026-04-16 07:21 | 50.06748 | 8.70218 | 1970 ft | 126 kts | 251° |
| 2026-04-16 07:21 | 50.06448 | 8.68950 | 1801 ft | 124 kts | 250° |
| 2026-04-16 07:21 | 50.06205 | 8.67925 | 1666 ft | 123 kts | 250° |
| 2026-04-16 07:22 | 50.06197 | 8.67891 | 1661 ft | 123 kts | 250° |
| 2026-04-16 07:22 | 50.05894 | 8.66613 | 1485 ft | 123 kts | 250° |
| 2026-04-16 07:22 | 50.05597 | 8.65362 | 1323 ft | 124 kts | 250° |
| 2026-04-16 07:22 | 50.05298 | 8.64103 | 1155 ft | 124 kts | 249° |
| 2026-04-16 07:23 | 50.04998 | 8.62841 | 989 ft | 124 kts | 249° |
| 2026-04-16 07:23 | 50.04696 | 8.61586 | 814 ft | 124 kts | 250° |
| 2026-04-16 07:23 | 50.04400 | 8.60319 | 618 ft | 124 kts | 251° |
| 2026-04-16 07:23 | 50.04200 | 8.59491 | 483 ft | 123 kts | 251° |
| 2026-04-16 07:24 | 50.03815 | 8.57858 | 366 ft | 111 kts | 250° |
| 2026-04-16 07:24 | 50.03663 | 8.57216 | 356 ft | 79 kts | 250° |
| 2026-04-16 07:24 | 50.03501 | 8.56546 | 357 ft | 62 kts | 250° |
| 2026-04-16 07:24 | 50.03439 | 8.56147 | 350 ft | 11 kts | 265° |
| 2026-04-16 07:25 | 50.03442 | 8.56014 | 347 ft | 15 kts | 278° |
| 2026-04-16 07:25 | 50.03461 | 8.55838 | 345 ft | 18 kts | 280° |
| 2026-04-16 07:25 | 50.03483 | 8.55642 | 345 ft | 19 kts | 279° |
| 2026-04-16 07:25 | 50.03484 | 8.55439 | 345 ft | 19 kts | 254° |
| 2026-04-16 07:26 | 50.03435 | 8.55234 | 346 ft | 21 kts | 249° |
| 2026-04-16 07:26 | 50.03383 | 8.55011 | 346 ft | 23 kts | 249° |
| 2026-04-16 07:26 | 50.03325 | 8.54773 | 338 ft | 25 kts | 250° |
| 2026-04-16 07:26 | 50.03275 | 8.54525 | 337 ft | 19 kts | 279° |
| 2026-04-16 07:27 | 50.03340 | 8.54465 | 338 ft | 11 kts | 338° |
| 2026-04-16 07:27 | 50.03407 | 8.54426 | 337 ft | 10 kts | 339° |
| 2026-04-16 07:27 | 50.03473 | 8.54388 | 347 ft | 12 kts | 340° |
| 2026-04-16 07:27 | 50.03575 | 8.54330 | 345 ft | 18 kts | 339° |
| 2026-04-16 07:28 | 50.03670 | 8.54373 | 345 ft | 16 kts | 65° |
| 2026-04-16 07:28 | 50.03711 | 8.54538 | 350 ft | 16 kts | 70° |
| 2026-04-16 07:28 | 50.03748 | 8.54694 | 346 ft | 15 kts | 69° |
| 2026-04-16 07:28 | 50.03785 | 8.54849 | 351 ft | 15 kts | 70° |
| 2026-04-16 07:29 | 50.03823 | 8.55006 | 348 ft | 16 kts | 70° |
| 2026-04-16 07:29 | 50.03861 | 8.55166 | 352 ft | 16 kts | 68° |
| 2026-04-16 07:29 | 50.03905 | 8.55351 | 349 ft | 21 kts | 70° |
| 2026-04-16 07:29 | 50.03960 | 8.55579 | 352 ft | 23 kts | 70° |
| 2026-04-16 07:30 | 50.04017 | 8.55818 | 357 ft | 24 kts | 69° |
| 2026-04-16 07:30 | 50.04074 | 8.56058 | 357 ft | 24 kts | 70° |
| 2026-04-16 07:30 | 50.04132 | 8.56302 | 354 ft | 24 kts | 70° |
| 2026-04-16 07:30 | 50.04191 | 8.56544 | 358 ft | 24 kts | 70° |
| 2026-04-16 07:31 | 50.04245 | 8.56766 | 361 ft | 17 kts | 61° |
| 2026-04-16 07:31 | 50.04349 | 8.56829 | 360 ft | 16 kts | 12° |
| 2026-04-16 07:31 | 50.04466 | 8.56859 | 359 ft | 18 kts | 12° |
| 2026-04-16 07:31 | 50.04592 | 8.56905 | 360 ft | 20 kts | 13° |
| 2026-04-16 07:32 | 50.04727 | 8.56987 | 357 ft | 21 kts | 25° |
| 2026-04-16 07:32 | 50.04836 | 8.57064 | 361 ft | 9 kts | 24° |
| 2026-04-16 07:32 | 50.04898 | 8.57072 | 356 ft | 7 kts | 341° |
| 2026-04-16 07:32 | 50.04903 | 8.57069 | 361 ft | 1 kts | 340° |
| 2026-04-16 07:33 | 50.04910 | 8.57065 | 359 ft | 0 kts | 339° |
| 2026-04-16 07:33 | 50.04917 | 8.57062 | 357 ft | 1 kts | 350° |
| 2026-04-16 07:33 | 50.04921 | 8.57067 | 362 ft | 0 kts | 29° |
| 2026-04-16 07:33 | 50.04921 | 8.57073 | 356 ft | 1 kts | 62° |
| 2026-04-16 07:34 | 50.04920 | 8.57076 | 356 ft | 0 kts | 89° |
| 2026-04-16 07:34 | 50.04919 | 8.57080 | 356 ft | 0 kts | 103° |
| 2026-04-16 07:34 | 50.04918 | 8.57086 | 356 ft | 0 kts | 102° |